sensor_id;sensor_type;location;lat;lon;timestamp;P1;durP1;ratioP1;P2;durP2;ratioP2
62863;SDS011;48954;59.950;11.014;2023-09-30T00:01:17;11.60;;;4.40;;
62863;SDS011;48954;59.950;11.014;2023-09-30T00:03:56;11.10;;;4.70;;
62863;SDS011;48954;59.950;11.014;2023-09-30T00:06:23;10.70;;;4.40;;
62863;SDS011;48954;59.950;11.014;2023-09-30T00:08:51;11.10;;;5.40;;
62863;SDS011;48954;59.950;11.014;2023-09-30T00:11:32;11.30;;;4.30;;
62863;SDS011;48954;59.950;11.014;2023-09-30T00:14:13;10.20;;;4.40;;
62863;SDS011;48954;59.950;11.014;2023-09-30T00:16:39;11.20;;;4.50;;
62863;SDS011;48954;59.950;11.014;2023-09-30T00:19:05;15.00;;;5.10;;
62863;SDS011;48954;59.950;11.014;2023-09-30T00:21:58;13.50;;;5.50;;
62863;SDS011;48954;59.950;11.014;2023-09-30T00:24:47;14.80;;;5.30;;
62863;SDS011;48954;59.950;11.014;2023-09-30T00:27:14;13.50;;;5.50;;
62863;SDS011;48954;59.950;11.014;2023-09-30T00:29:55;10.70;;;4.70;;
62863;SDS011;48954;59.950;11.014;2023-09-30T00:32:37;12.70;;;4.90;;
62863;SDS011;48954;59.950;11.014;2023-09-30T00:35:04;13.30;;;4.60;;
62863;SDS011;48954;59.950;11.014;2023-09-30T00:37:35;11.60;;;4.60;;
62863;SDS011;48954;59.950;11.014;2023-09-30T00:40:05;12.60;;;4.80;;
62863;SDS011;48954;59.950;11.014;2023-09-30T00:42:33;14.00;;;5.40;;
62863;SDS011;48954;59.950;11.014;2023-09-30T00:45:14;13.00;;;5.00;;
62863;SDS011;48954;59.950;11.014;2023-09-30T00:47:45;12.80;;;5.20;;
62863;SDS011;48954;59.950;11.014;2023-09-30T00:50:13;16.30;;;4.70;;
62863;SDS011;48954;59.950;11.014;2023-09-30T00:52:49;11.00;;;4.60;;
62863;SDS011;48954;59.950;11.014;2023-09-30T00:55:21;9.00;;;4.30;;
62863;SDS011;48954;59.950;11.014;2023-09-30T00:57:57;12.80;;;4.30;;
62863;SDS011;48954;59.950;11.014;2023-09-30T01:00:24;10.50;;;3.70;;
62863;SDS011;48954;59.950;11.014;2023-09-30T01:02:51;12.80;;;4.30;;
62863;SDS011;48954;59.950;11.014;2023-09-30T01:05:19;10.80;;;4.60;;
62863;SDS011;48954;59.950;11.014;2023-09-30T01:07:48;8.30;;;4.00;;
62863;SDS011;48954;59.950;11.014;2023-09-30T01:10:44;13.50;;;4.10;;
62863;SDS011;48954;59.950;11.014;2023-09-30T01:13:12;8.60;;;4.10;;
62863;SDS011;48954;59.950;11.014;2023-09-30T01:15:39;9.70;;;3.70;;
62863;SDS011;48954;59.950;11.014;2023-09-30T01:18:13;9.40;;;3.60;;
62863;SDS011;48954;59.950;11.014;2023-09-30T01:20:54;7.70;;;3.70;;
62863;SDS011;48954;59.950;11.014;2023-09-30T01:23:43;12.00;;;4.50;;
62863;SDS011;48954;59.950;11.014;2023-09-30T01:26:13;11.60;;;4.00;;
62863;SDS011;48954;59.950;11.014;2023-09-30T01:28:42;14.00;;;3.60;;
62863;SDS011;48954;59.950;11.014;2023-09-30T01:31:09;9.90;;;3.30;;
62863;SDS011;48954;59.950;11.014;2023-09-30T01:33:36;11.50;;;4.20;;
62863;SDS011;48954;59.950;11.014;2023-09-30T01:36:04;8.80;;;3.70;;
62863;SDS011;48954;59.950;11.014;2023-09-30T01:38:38;9.50;;;3.70;;
62863;SDS011;48954;59.950;11.014;2023-09-30T01:41:04;12.80;;;3.60;;
62863;SDS011;48954;59.950;11.014;2023-09-30T01:43:33;10.70;;;3.20;;
62863;SDS011;48954;59.950;11.014;2023-09-30T01:46:03;11.90;;;3.20;;
62863;SDS011;48954;59.950;11.014;2023-09-30T01:48:30;10.10;;;3.10;;
62863;SDS011;48954;59.950;11.014;2023-09-30T01:50:57;9.80;;;2.90;;
62863;SDS011;48954;59.950;11.014;2023-09-30T01:53:23;9.40;;;3.40;;
62863;SDS011;48954;59.950;11.014;2023-09-30T01:55:49;9.90;;;3.40;;
62863;SDS011;48954;59.950;11.014;2023-09-30T01:58:17;8.10;;;2.90;;
62863;SDS011;48954;59.950;11.014;2023-09-30T02:00:48;9.40;;;3.50;;
62863;SDS011;48954;59.950;11.014;2023-09-30T02:03:16;9.90;;;3.10;;
62863;SDS011;48954;59.950;11.014;2023-09-30T02:05:44;9.80;;;3.10;;
62863;SDS011;48954;59.950;11.014;2023-09-30T02:08:11;10.10;;;2.70;;
62863;SDS011;48954;59.950;11.014;2023-09-30T02:10:38;8.90;;;2.90;;
62863;SDS011;48954;59.950;11.014;2023-09-30T02:13:25;10.80;;;2.50;;
62863;SDS011;48954;59.950;11.014;2023-09-30T02:15:53;8.40;;;2.80;;
62863;SDS011;48954;59.950;11.014;2023-09-30T02:18:21;10.10;;;3.10;;
62863;SDS011;48954;59.950;11.014;2023-09-30T02:20:48;7.70;;;2.90;;
62863;SDS011;48954;59.950;11.014;2023-09-30T02:23:14;12.70;;;3.00;;
62863;SDS011;48954;59.950;11.014;2023-09-30T02:25:42;9.60;;;2.40;;
62863;SDS011;48954;59.950;11.014;2023-09-30T02:28:09;8.10;;;3.00;;
62863;SDS011;48954;59.950;11.014;2023-09-30T02:30:36;7.40;;;2.90;;
62863;SDS011;48954;59.950;11.014;2023-09-30T02:33:11;9.60;;;2.60;;
62863;SDS011;48954;59.950;11.014;2023-09-30T02:35:43;10.70;;;3.00;;
62863;SDS011;48954;59.950;11.014;2023-09-30T02:38:12;11.40;;;2.70;;
62863;SDS011;48954;59.950;11.014;2023-09-30T02:40:39;8.20;;;2.30;;
62863;SDS011;48954;59.950;11.014;2023-09-30T02:43:09;8.90;;;2.90;;
62863;SDS011;48954;59.950;11.014;2023-09-30T02:45:35;7.70;;;2.60;;
62863;SDS011;48954;59.950;11.014;2023-09-30T02:48:02;8.80;;;2.10;;
62863;SDS011;48954;59.950;11.014;2023-09-30T02:50:30;7.60;;;2.10;;
62863;SDS011;48954;59.950;11.014;2023-09-30T02:52:57;9.10;;;2.50;;
62863;SDS011;48954;59.950;11.014;2023-09-30T02:55:37;12.00;;;3.40;;
62863;SDS011;48954;59.950;11.014;2023-09-30T02:58:04;7.20;;;2.30;;
62863;SDS011;48954;59.950;11.014;2023-09-30T03:00:31;9.00;;;2.20;;
62863;SDS011;48954;59.950;11.014;2023-09-30T03:03:01;9.20;;;2.50;;
62863;SDS011;48954;59.950;11.014;2023-09-30T03:05:30;11.10;;;2.40;;
62863;SDS011;48954;59.950;11.014;2023-09-30T03:07:59;10.30;;;2.80;;
62863;SDS011;48954;59.950;11.014;2023-09-30T03:10:29;6.70;;;2.40;;
62863;SDS011;48954;59.950;11.014;2023-09-30T03:12:56;11.80;;;2.50;;
62863;SDS011;48954;59.950;11.014;2023-09-30T03:15:27;8.10;;;2.20;;
62863;SDS011;48954;59.950;11.014;2023-09-30T03:17:54;12.00;;;3.10;;
62863;SDS011;48954;59.950;11.014;2023-09-30T03:20:20;12.50;;;3.10;;
62863;SDS011;48954;59.950;11.014;2023-09-30T03:23:02;14.80;;;2.70;;
62863;SDS011;48954;59.950;11.014;2023-09-30T03:25:33;10.70;;;2.60;;
62863;SDS011;48954;59.950;11.014;2023-09-30T03:28:26;12.90;;;2.80;;
62863;SDS011;48954;59.950;11.014;2023-09-30T03:30:53;14.60;;;2.70;;
62863;SDS011;48954;59.950;11.014;2023-09-30T03:33:19;11.20;;;2.60;;
62863;SDS011;48954;59.950;11.014;2023-09-30T03:35:46;9.70;;;2.30;;
62863;SDS011;48954;59.950;11.014;2023-09-30T03:38:13;12.30;;;3.30;;
62863;SDS011;48954;59.950;11.014;2023-09-30T03:40:40;10.00;;;3.30;;
62863;SDS011;48954;59.950;11.014;2023-09-30T03:43:08;14.80;;;4.10;;
62863;SDS011;48954;59.950;11.014;2023-09-30T03:45:37;15.80;;;3.40;;
62863;SDS011;48954;59.950;11.014;2023-09-30T03:48:10;10.60;;;3.00;;
62863;SDS011;48954;59.950;11.014;2023-09-30T03:50:39;10.60;;;2.60;;
62863;SDS011;48954;59.950;11.014;2023-09-30T03:53:13;13.60;;;2.90;;
62863;SDS011;48954;59.950;11.014;2023-09-30T03:55:41;13.20;;;2.70;;
62863;SDS011;48954;59.950;11.014;2023-09-30T03:58:08;12.10;;;2.90;;
62863;SDS011;48954;59.950;11.014;2023-09-30T04:00:35;13.50;;;3.50;;
62863;SDS011;48954;59.950;11.014;2023-09-30T04:03:01;12.50;;;2.70;;
62863;SDS011;48954;59.950;11.014;2023-09-30T04:05:28;20.70;;;4.30;;
62863;SDS011;48954;59.950;11.014;2023-09-30T04:07:58;14.70;;;3.20;;
62863;SDS011;48954;59.950;11.014;2023-09-30T04:10:39;13.90;;;3.00;;
62863;SDS011;48954;59.950;11.014;2023-09-30T04:13:07;18.30;;;3.50;;
62863;SDS011;48954;59.950;11.014;2023-09-30T04:15:48;12.10;;;3.40;;
62863;SDS011;48954;59.950;11.014;2023-09-30T04:18:15;16.90;;;2.90;;
62863;SDS011;48954;59.950;11.014;2023-09-30T04:20:42;16.00;;;3.10;;
62863;SDS011;48954;59.950;11.014;2023-09-30T04:23:11;14.80;;;3.00;;
62863;SDS011;48954;59.950;11.014;2023-09-30T04:25:45;14.60;;;3.20;;
62863;SDS011;48954;59.950;11.014;2023-09-30T04:28:27;19.10;;;3.50;;
62863;SDS011;48954;59.950;11.014;2023-09-30T04:30:53;16.20;;;3.90;;
62863;SDS011;48954;59.950;11.014;2023-09-30T04:33:22;13.10;;;3.40;;
62863;SDS011;48954;59.950;11.014;2023-09-30T04:35:50;17.70;;;3.50;;
62863;SDS011;48954;59.950;11.014;2023-09-30T04:38:19;11.60;;;2.60;;
62863;SDS011;48954;59.950;11.014;2023-09-30T04:40:59;20.00;;;4.00;;
62863;SDS011;48954;59.950;11.014;2023-09-30T04:43:28;11.60;;;3.00;;
62863;SDS011;48954;59.950;11.014;2023-09-30T04:46:28;15.50;;;4.40;;
62863;SDS011;48954;59.950;11.014;2023-09-30T04:48:58;18.90;;;3.30;;
62863;SDS011;48954;59.950;11.014;2023-09-30T04:51:30;15.80;;;3.40;;
62863;SDS011;48954;59.950;11.014;2023-09-30T04:54:00;15.00;;;3.20;;
62863;SDS011;48954;59.950;11.014;2023-09-30T04:56:28;11.50;;;3.40;;
62863;SDS011;48954;59.950;11.014;2023-09-30T04:58:59;20.10;;;3.70;;
62863;SDS011;48954;59.950;11.014;2023-09-30T05:02:05;11.60;;;2.40;;
62863;SDS011;48954;59.950;11.014;2023-09-30T05:04:45;15.20;;;3.00;;
62863;SDS011;48954;59.950;11.014;2023-09-30T05:07:15;14.30;;;2.70;;
62863;SDS011;48954;59.950;11.014;2023-09-30T05:09:51;14.50;;;3.50;;
62863;SDS011;48954;59.950;11.014;2023-09-30T05:12:18;14.60;;;3.50;;
62863;SDS011;48954;59.950;11.014;2023-09-30T05:14:47;15.70;;;3.90;;
62863;SDS011;48954;59.950;11.014;2023-09-30T05:17:14;10.90;;;2.40;;
62863;SDS011;48954;59.950;11.014;2023-09-30T05:19:56;12.10;;;2.80;;
62863;SDS011;48954;59.950;11.014;2023-09-30T05:22:41;12.20;;;2.30;;
62863;SDS011;48954;59.950;11.014;2023-09-30T05:25:22;12.50;;;2.90;;
62863;SDS011;48954;59.950;11.014;2023-09-30T05:28:03;13.90;;;2.90;;
62863;SDS011;48954;59.950;11.014;2023-09-30T05:30:43;18.60;;;3.00;;
62863;SDS011;48954;59.950;11.014;2023-09-30T05:33:09;13.80;;;2.60;;
62863;SDS011;48954;59.950;11.014;2023-09-30T05:35:35;13.40;;;2.70;;
62863;SDS011;48954;59.950;11.014;2023-09-30T05:38:09;14.70;;;2.90;;
62863;SDS011;48954;59.950;11.014;2023-09-30T05:40:44;12.10;;;2.90;;
62863;SDS011;48954;59.950;11.014;2023-09-30T05:43:14;15.30;;;3.20;;
62863;SDS011;48954;59.950;11.014;2023-09-30T05:45:54;10.90;;;2.30;;
62863;SDS011;48954;59.950;11.014;2023-09-30T05:48:40;9.90;;;2.10;;
62863;SDS011;48954;59.950;11.014;2023-09-30T05:51:22;11.70;;;2.90;;
62863;SDS011;48954;59.950;11.014;2023-09-30T05:53:50;12.90;;;2.50;;
62863;SDS011;48954;59.950;11.014;2023-09-30T05:56:24;11.40;;;2.30;;
62863;SDS011;48954;59.950;11.014;2023-09-30T05:58:51;16.30;;;2.70;;
62863;SDS011;48954;59.950;11.014;2023-09-30T06:01:21;9.20;;;2.80;;
62863;SDS011;48954;59.950;11.014;2023-09-30T06:04:27;26.00;;;3.40;;
62863;SDS011;48954;59.950;11.014;2023-09-30T06:08:05;11.10;;;2.60;;
62863;SDS011;48954;59.950;11.014;2023-09-30T06:11:04;13.20;;;2.10;;
62863;SDS011;48954;59.950;11.014;2023-09-30T06:13:57;13.00;;;2.60;;
62863;SDS011;48954;59.950;11.014;2023-09-30T06:16:41;15.30;;;2.20;;
62863;SDS011;48954;59.950;11.014;2023-09-30T06:19:44;13.70;;;3.60;;
62863;SDS011;48954;59.950;11.014;2023-09-30T06:22:25;8.40;;;2.30;;
62863;SDS011;48954;59.950;11.014;2023-09-30T06:25:05;11.70;;;2.90;;
62863;SDS011;48954;59.950;11.014;2023-09-30T06:27:54;15.80;;;3.40;;
62863;SDS011;48954;59.950;11.014;2023-09-30T06:33:39;14.40;;;2.70;;
62863;SDS011;48954;59.950;11.014;2023-09-30T07:49:09;7.10;;;1.90;;
62863;SDS011;48954;59.950;11.014;2023-09-30T07:51:47;6.40;;;1.90;;
62863;SDS011;48954;59.950;11.014;2023-09-30T07:54:49;6.70;;;1.40;;
62863;SDS011;48954;59.950;11.014;2023-09-30T07:57:33;4.20;;;1.10;;
62863;SDS011;48954;59.950;11.014;2023-09-30T08:03:50;6.70;;;1.30;;
62863;SDS011;48954;59.950;11.014;2023-09-30T08:06:31;8.00;;;1.60;;
62863;SDS011;48954;59.950;11.014;2023-09-30T08:08:58;7.00;;;1.30;;
62863;SDS011;48954;59.950;11.014;2023-09-30T08:28:46;4.50;;;1.20;;
62863;SDS011;48954;59.950;11.014;2023-09-30T08:32:16;6.90;;;1.60;;
62863;SDS011;48954;59.950;11.014;2023-09-30T08:35:01;6.10;;;1.90;;
62863;SDS011;48954;59.950;11.014;2023-09-30T08:57:26;3.80;;;0.80;;
62863;SDS011;48954;59.950;11.014;2023-09-30T09:00:29;4.00;;;1.20;;
62863;SDS011;48954;59.950;11.014;2023-09-30T09:42:54;6.40;;;1.40;;
62863;SDS011;48954;59.950;11.014;2023-09-30T10:52:47;2.50;;;0.60;;
62863;SDS011;48954;59.950;11.014;2023-09-30T11:01:33;2.40;;;0.50;;
62863;SDS011;48954;59.950;11.014;2023-09-30T11:49:52;2.50;;;1.00;;
62863;SDS011;48954;59.950;11.014;2023-09-30T11:53:01;2.50;;;0.90;;
62863;SDS011;48954;59.950;11.014;2023-09-30T12:04:41;2.60;;;0.90;;
62863;SDS011;48954;59.950;11.014;2023-09-30T12:33:42;4.20;;;1.50;;
62863;SDS011;48954;59.950;11.014;2023-09-30T12:36:50;3.70;;;1.40;;
62863;SDS011;48954;59.950;11.014;2023-09-30T13:41:20;3.40;;;1.20;;
62863;SDS011;48954;59.950;11.014;2023-09-30T13:44:43;1.80;;;0.90;;
62863;SDS011;48954;59.950;11.014;2023-09-30T13:48:05;1.70;;;0.50;;
62863;SDS011;48954;59.950;11.014;2023-09-30T14:00:02;0.90;;;0.30;;
62863;SDS011;48954;59.950;11.014;2023-09-30T14:17:07;2.10;;;1.10;;
62863;SDS011;48954;59.950;11.014;2023-09-30T14:34:48;2.40;;;0.70;;
62863;SDS011;48954;59.950;11.014;2023-09-30T15:10:28;3.00;;;2.10;;
62863;SDS011;48954;59.950;11.014;2023-09-30T15:14:18;5.10;;;2.50;;
62863;SDS011;48954;59.950;11.014;2023-09-30T15:26:04;1.70;;;0.70;;
62863;SDS011;48954;59.950;11.014;2023-09-30T15:40:53;3.30;;;1.20;;
62863;SDS011;48954;59.950;11.014;2023-09-30T15:44:13;2.70;;;1.30;;
62863;SDS011;48954;59.950;11.014;2023-09-30T16:05:35;3.60;;;2.10;;
62863;SDS011;48954;59.950;11.014;2023-09-30T16:28:51;5.10;;;2.20;;
62863;SDS011;48954;59.950;11.014;2023-09-30T16:31:57;2.90;;;0.90;;
62863;SDS011;48954;59.950;11.014;2023-09-30T16:41:14;4.40;;;1.40;;
62863;SDS011;48954;59.950;11.014;2023-09-30T19:36:57;3.70;;;2.00;;
62863;SDS011;48954;59.950;11.014;2023-09-30T20:12:11;2.60;;;1.00;;
62863;SDS011;48954;59.950;11.014;2023-09-30T23:48:23;7.80;;;1.80;;
62863;SDS011;48954;59.950;11.014;2023-09-30T23:51:57;5.10;;;2.00;;
62863;SDS011;48954;59.950;11.014;2023-09-30T23:55:19;5.80;;;1.70;;
62863;SDS011;48954;59.950;11.014;2023-09-30T23:58:39;6.60;;;1.80;;
